createdAt,value
2019-04-10T00:03:41.812Z,61.4
2019-04-10T00:08:18.865Z,61.5
2019-04-10T00:13:26.603Z,62.7
2019-04-10T00:18:34.598Z,62.7
2019-04-10T00:23:42.300Z,62.1
2019-04-10T00:28:47.393Z,62
2019-04-10T00:33:55.398Z,62
2019-04-10T00:39:00.602Z,62
2019-04-10T00:44:08.614Z,61.3
2019-04-10T00:49:13.452Z,61.3
2019-04-10T00:54:20.211Z,61.3
2019-04-10T00:59:27.015Z,61.1
2019-04-10T01:04:34.130Z,61.5
2019-04-10T01:09:41.333Z,62
2019-04-10T01:14:48.512Z,62.1
2019-04-10T01:19:58.471Z,61.9
2019-04-10T01:24:55.255Z,61.8
2019-04-10T01:30:04.152Z,61.7
2019-04-10T01:35:12.025Z,61.8
2019-04-10T01:40:20.617Z,62
2019-04-10T01:45:30.002Z,62.1
2019-04-10T01:50:38.823Z,62.5
2019-04-10T02:00:52.075Z,63
2019-04-10T02:05:58.568Z,63
2019-04-10T02:11:06.762Z,63.2
2019-04-10T02:16:25.645Z,63.4
2019-04-10T02:21:23.431Z,63.5
2019-04-10T02:26:30.768Z,64
2019-04-10T02:31:40.074Z,64.3
2019-04-10T02:36:48.800Z,65.3
2019-04-10T02:41:58.345Z,65.5
2019-04-10T02:47:07.328Z,65.8
2019-04-10T02:52:17.924Z,66.1
2019-04-10T02:57:17.169Z,66.9
2019-04-10T03:02:26.539Z,67.5
2019-04-10T03:07:35.857Z,68
2019-04-10T03:12:46.380Z,68.9
2019-04-10T03:17:44.822Z,68.5
2019-04-10T03:22:53.348Z,68.6
2019-04-10T03:27:50.335Z,68.8
2019-04-10T03:33:18.538Z,69
2019-04-10T03:38:09.815Z,69.5
2019-04-10T03:43:08.445Z,69.6
2019-04-10T03:48:16.716Z,69.9
2019-04-10T03:53:26.408Z,70.1
2019-04-10T03:58:33.362Z,70.1
2019-04-10T04:03:40.520Z,70.5
2019-04-10T04:08:59.988Z,70.4
2019-04-10T04:13:49.993Z,70.2
2019-04-10T04:18:55.921Z,70.3
2019-04-10T04:24:04.570Z,69.7
2019-04-10T04:29:11.483Z,69.4
2019-04-10T04:34:16.805Z,69.3
2019-04-10T04:39:33.011Z,68.4
2019-04-10T04:44:31.935Z,68.2
2019-04-10T04:49:40.582Z,67.7
2019-04-10T04:54:48.445Z,67.5
2019-04-10T04:59:54.462Z,67.7
2019-04-10T05:05:04.391Z,67.8
2019-04-10T05:10:11.932Z,67.5
2019-04-10T05:15:20.300Z,67
2019-04-10T05:20:47.001Z,66.5
2019-04-10T05:25:37.589Z,65.8
2019-04-10T05:30:46.322Z,65.2
2019-04-10T05:35:53.655Z,65.1
2019-04-10T05:41:02.157Z,64.6
2019-04-10T05:46:07.932Z,64.5
2019-04-10T05:51:25.398Z,63.6
2019-04-10T05:56:18.986Z,63.2
2019-04-10T06:01:44.477Z,62.8
2019-04-10T06:06:34.351Z,62.6
2019-04-10T06:11:45.727Z,62.6
2019-04-10T06:16:44.691Z,61.9
2019-04-10T06:21:52.357Z,60.6
2019-04-10T06:26:54.828Z,59.2
2019-04-10T06:31:59.770Z,59.2
2019-04-10T06:37:08.008Z,56.7
2019-04-10T06:42:17.176Z,55.7
2019-04-10T06:47:25.123Z,55.1
2019-04-10T06:52:30.389Z,54.8
2019-04-10T06:57:59.234Z,54.7
2019-04-10T07:02:47.269Z,54.1
2019-04-10T07:08:28.084Z,54.5
2019-04-10T07:12:57.455Z,53.9
2019-04-10T07:18:05.194Z,53.9
2019-04-10T07:23:19.185Z,53.8
2019-04-10T07:28:17.287Z,54.1
2019-04-10T07:33:24.540Z,55.1
2019-04-10T07:38:29.550Z,55.6
2019-04-10T07:43:35.111Z,55.6
2019-04-10T07:48:41.354Z,56.2
2019-04-10T07:53:47.917Z,55.9
2019-04-10T07:58:56.736Z,55.2
2019-04-10T08:04:02.806Z,55.2
2019-04-10T08:09:10.439Z,55.3
2019-04-10T08:14:17.733Z,54.8
2019-04-10T08:19:24.870Z,54.5
2019-04-10T08:24:30.977Z,54.2
2019-04-10T08:29:40.840Z,53.8
2019-04-10T08:34:47.196Z,53.9
2019-04-10T08:39:56.467Z,53.7
2019-04-10T08:44:53.998Z,53.7
2019-04-10T08:50:00.045Z,54.7
2019-04-10T08:55:10.011Z,54.6
2019-04-10T09:00:06.491Z,54.4
2019-04-10T09:05:14.448Z,54.2
2019-04-10T09:10:23.409Z,54
2019-04-10T09:15:29.821Z,54
2019-04-10T09:20:36.952Z,52
2019-04-10T09:25:44.467Z,51.6
2019-04-10T09:30:52.938Z,49.5
2019-04-10T09:35:58.942Z,48.6
2019-04-10T09:41:07.469Z,47.9
2019-04-10T09:46:14.554Z,45.5
2019-04-10T09:51:25.353Z,43.2
2019-04-10T09:56:23.187Z,43.9
2019-04-10T10:01:31.222Z,45.4
2019-04-10T10:06:41.090Z,46.6
2019-04-10T10:11:50.028Z,46.4
2019-04-10T10:16:55.954Z,46.4
2019-04-10T10:22:09.254Z,48
2019-04-10T10:27:05.341Z,47.9
2019-04-10T10:32:12.683Z,42.9
2019-04-10T10:37:20.367Z,40.1
2019-04-10T10:42:26.244Z,37.3
2019-04-10T10:47:33.403Z,36.8
2019-04-10T10:52:39.745Z,33.2
2019-04-10T10:57:47.024Z,32.7
2019-04-10T11:02:53.718Z,32.5
2019-04-10T11:08:00.884Z,31
2019-04-10T11:13:08.771Z,31
2019-04-10T11:18:16.615Z,30.4
2019-04-10T11:23:24.523Z,30.4
2019-04-10T11:30:34.491Z,30
2019-04-10T11:33:32.851Z,30.8
2019-04-10T11:38:42.788Z,30.9
2019-04-10T11:43:44.522Z,30.4
2019-04-10T11:48:49.206Z,31.1
2019-04-10T11:53:59.097Z,31.1
2019-04-10T11:59:04.994Z,30.5
2019-04-10T12:06:13.574Z,29.5
2019-04-10T12:14:19.339Z,27
2019-04-10T12:19:29.748Z,27.7
2019-04-10T12:24:26.923Z,28
2019-04-10T12:29:34.734Z,29.1
2019-04-10T12:34:38.663Z,29
2019-04-10T12:44:47.120Z,33.1
2019-04-10T12:49:56.025Z,35.1
2019-04-10T12:55:04.853Z,37.9
2019-04-10T13:00:13.830Z,40.4
2019-04-10T13:05:27.285Z,42.4
2019-04-10T13:10:24.195Z,42.3
2019-04-10T13:15:32.740Z,39.8
2019-04-10T13:20:38.665Z,39.8
2019-04-10T13:26:05.491Z,41.3
2019-04-10T13:31:01.961Z,42.2
2019-04-10T13:41:05.089Z,41.3
2019-04-10T13:46:13.736Z,40.9
2019-04-10T13:51:19.278Z,40.9
2019-04-10T13:56:27.315Z,40.9
2019-04-10T14:01:35.363Z,40.3
2019-04-10T14:06:41.410Z,40.3
2019-04-10T14:11:47.551Z,43.3
2019-04-10T14:16:51.772Z,44.3
2019-04-10T14:22:00.670Z,43.4
2019-04-10T14:27:01.024Z,43.4
2019-04-10T14:32:08.841Z,44
2019-04-10T14:37:15.378Z,43.8
2019-04-10T14:42:21.085Z,44.4
2019-04-10T14:47:29.599Z,44.1
2019-04-10T14:52:36.808Z,44.3
2019-04-10T14:57:45.159Z,44.9
2019-04-10T15:02:51.525Z,44.9
2019-04-10T15:08:01.589Z,45.3
2019-04-10T15:13:21.169Z,45.7
2019-04-10T15:17:58.984Z,45.8
2019-04-10T15:23:05.817Z,45.9
2019-04-10T15:28:10.383Z,46
2019-04-10T15:33:16.025Z,46.5
2019-04-10T15:38:26.199Z,47.1
2019-04-10T15:43:27.916Z,48
2019-04-10T15:48:27.143Z,48.7
2019-04-10T15:53:33.107Z,48.5
2019-04-10T15:58:38.290Z,49.1
2019-04-10T16:03:43.715Z,50.2
2019-04-10T16:08:53.401Z,50.6
2019-04-10T16:14:03.011Z,50.3
2019-04-10T16:19:09.747Z,50.7
2019-04-10T16:24:17.436Z,51
2019-04-10T16:29:22.033Z,51.3
2019-04-10T16:34:28.889Z,51.7
2019-04-10T16:39:38.232Z,52
2019-04-10T16:44:38.273Z,52.4
2019-04-10T16:49:48.567Z,52.8
2019-04-10T16:54:49.057Z,53.3
2019-04-10T16:59:57.401Z,54.5
2019-04-10T17:05:04.717Z,54.6
2019-04-10T17:10:29.988Z,55.3
2019-04-10T17:15:23.959Z,56
2019-04-10T17:20:30.684Z,56.3
2019-04-10T17:25:31.324Z,56.6
2019-04-10T17:35:43.423Z,57
2019-04-10T17:41:03.896Z,56.6
2019-04-10T17:45:52.996Z,56
2019-04-10T17:50:59.366Z,56.4
2019-04-10T17:56:04.103Z,55.6
2019-04-10T18:01:12.188Z,55.4
2019-04-10T18:11:25.295Z,55.4
2019-04-10T18:16:31.720Z,56.1
2019-04-10T18:21:37.898Z,56.7
2019-04-10T18:26:49.030Z,57.1
2019-04-10T18:31:49.340Z,57.3
2019-04-10T18:42:05.349Z,57.9
2019-04-10T18:47:02.721Z,57.9
2019-04-10T18:52:12.671Z,64
2019-04-10T18:57:10.201Z,67.2
2019-04-10T19:02:19.697Z,70
2019-04-10T19:07:18.248Z,73.5
2019-04-10T19:12:24.379Z,73.8
2019-04-10T19:17:31.302Z,73.6
2019-04-10T19:22:38.711Z,72.4
2019-04-10T19:27:48.512Z,72.4
2019-04-10T19:32:55.769Z,73.4
2019-04-10T19:38:03.122Z,73.2
2019-04-10T19:48:15.003Z,73.4
2019-04-10T19:53:22.166Z,76.8
2019-04-10T19:58:30.124Z,76.3
2019-04-10T20:03:37.240Z,80.8
2019-04-10T20:08:45.784Z,82.3
2019-04-10T20:13:52.968Z,81.1
2019-04-10T20:19:01.022Z,82.3
2019-04-10T20:24:08.183Z,81.6
2019-04-10T20:29:17.032Z,83.1
2019-04-10T20:34:15.644Z,84.2
2019-04-10T20:39:21.000Z,84
2019-04-10T20:44:29.927Z,84
2019-04-10T20:49:38.882Z,83.9
2019-04-10T20:54:44.762Z,84
2019-04-10T20:59:51.856Z,81.3
2019-04-10T21:05:14.755Z,81.3
2019-04-10T21:10:02.661Z,81.7
2019-04-10T21:15:09.008Z,81.4
2019-04-10T21:20:18.138Z,81.5
2019-04-10T21:25:27.122Z,80.9
2019-04-10T21:30:35.978Z,80.6
2019-04-10T21:35:43.595Z,80.6
2019-04-10T21:40:50.230Z,83.2
2019-04-10T21:45:57.194Z,83.1
2019-04-10T21:51:06.691Z,85.5
2019-04-10T21:56:14.560Z,87.8
2019-04-10T22:01:20.643Z,86.8
2019-04-10T22:06:28.032Z,87.1
2019-04-10T22:11:34.791Z,86.8
2019-04-10T22:16:40.846Z,89.3
2019-04-10T22:21:50.177Z,90
2019-04-10T22:26:58.377Z,91
2019-04-10T22:32:07.152Z,91.3
2019-04-10T22:37:17.433Z,91.3
2019-04-10T22:42:14.722Z,91.1
2019-04-10T22:47:20.772Z,90.3
2019-04-10T22:52:29.994Z,88.6
2019-04-10T22:57:40.015Z,83.5
2019-04-10T23:02:38.428Z,80.8
2019-04-10T23:07:44.907Z,80.8
2019-04-10T23:13:08.873Z,81.8
2019-04-10T23:17:55.753Z,80.8
2019-04-10T23:23:03.863Z,80.8
2019-04-10T23:28:13.451Z,80.5
2019-04-10T23:33:21.485Z,80.8
2019-04-10T23:38:28.851Z,81.2
2019-04-10T23:43:34.066Z,81.1
2019-04-10T23:48:41.968Z,81
2019-04-10T23:53:50.658Z,81.5
2019-04-10T23:58:59.305Z,82
